CMA CGM Tosca — FMEL — position and weather

sailwx.info

Track history (hours):
 
Tides and Currents Weather Stations Pressure Air Temp Water Temp Dewpoint Dewpoint Depression Visibility Wind Speed Wind Dir Waves Ship Positions

CMA CGM Tosca

Last reported at 2015-Apr-28 13:33 UTC. Time now 2015-Apr-28 19:46 UTC.
Position N 49°43' W 000°47'.

Length 334 m; draft 14.5 m.

Type: Ship. MMSI: 228335900.

Date/timePositionNaut miles runAvg speedWind from/ knotsBaromVisibWave heightAir tempDewpointWater temp
2015-Apr-28 13:33N 49°43' W 000°47'1514.9
2015-Apr-28 12:33N 49°36' W 000°26'1414.0
2015-Apr-28 11:34N 49°32' W 000°05'10 9.9
2015-Apr-28 10:34N 49°28' E 000°09'1 1.0
2015-Apr-28 09:33N 49°29' E 000°10'0 0.0
2015-Apr-28 08:33N 49°29' E 000°10'0 0.0
2015-Apr-28 07:33N 49°29' E 000°10'0 0.0
2015-Apr-28 06:33N 49°29' E 000°10'0 0.0
2015-Apr-28 05:33N 49°29' E 000°10'0 0.0
2015-Apr-28 04:30N 49°29' E 000°10'0 0.0
2015-Apr-28 03:27N 49°29' E 000°10'0 0.0
2015-Apr-28 02:33N 49°29' E 000°10'0 0.0
2015-Apr-28 01:33N 49°29' E 000°10'0 0.0
2015-Apr-28 00:33N 49°29' E 000°10'0 0.0
2015-Apr-27 23:34N 49°29' E 000°10'0 0.0
2015-Apr-27 22:33N 49°29' E 000°10'0 0.0
2015-Apr-27 21:30N 49°29' E 000°10'0 0.0
2015-Apr-27 20:33N 49°29' E 000°10'0 0.0
2015-Apr-27 19:33N 49°29' E 000°10'0 0.0
2015-Apr-27 18:33N 49°29' E 000°10'0 0.0
2015-Apr-27 17:33N 49°29' E 000°10'0 0.0
2015-Apr-27 16:33N 49°29' E 000°10'0 0.0
2015-Apr-27 15:33N 49°29' E 000°10'0 0.0
2015-Apr-27 14:33N 49°29' E 000°10'0 0.0
2015-Apr-27 13:33N 49°29' E 000°10'0 0.0
2015-Apr-27 12:33N 49°29' E 000°10'0 0.3
2015-Apr-27 11:34N 49°28' E 000°10'4 3.7
2015-Apr-27 10:33N 49°29' E 000°04'1010.4
2015-Apr-27 09:34N 49°33' W 000°11'1010.1
2015-Apr-27 08:33N 49°43' W 000°11'7 6.8
2015-Apr-27 07:34N 49°50' W 000°11'37 9.2
2015-Apr-27 03:29N 50°27' W 000°04'17 9.0
2015-Apr-27 01:34N 50°31' E 000°22'10 9.8
2015-Apr-27 00:33N 50°34' E 000°37'1010.6
2015-Apr-26 23:34N 50°41' E 000°50'1111.0
2015-Apr-26 22:34N 50°47' E 001°04'1110.7
2015-Apr-26 21:33N 50°54' E 001°17'1010.2
2015-Apr-26 20:33N 51°02' E 001°28'9 8.8
2015-Apr-26 19:34N 51°06' E 001°41'1010.1
2015-Apr-26 18:33N 51°03' E 001°56'10 9.6
2015-Apr-26 17:33N 51°00' E 002°11'0 0.0
2015-Apr-26 16:30N 51°00' E 002°11'0 0.0
2015-Apr-26 15:33N 51°00' E 002°11'0 0.0
2015-Apr-26 14:34N 51°00' E 002°11'0 0.0
2015-Apr-26 13:27N 51°00' E 002°11'0 0.0
2015-Apr-26 12:33N 51°00' E 002°11'0 0.0
2015-Apr-26 11:30N 51°00' E 002°11'0 0.0
2015-Apr-26 10:27N 51°00' E 002°11'0 0.0
2015-Apr-26 09:34N 51°00' E 002°11'2 1.9
2015-Apr-26 08:34N 51°02' E 002°10'1212.0
2015-Apr-26 07:33N 51°02' E 001°51'4 4.3
2015-Apr-26 06:33N 51°03' E 001°44'5 5.4
2015-Apr-26 05:33N 51°08' E 001°40'3 3.5
2015-Apr-26 04:34N 51°11' E 001°43'5 5.0
2015-Apr-26 03:33N 51°14' E 001°48'6 6.0
2015-Apr-26 02:33N 51°19' E 001°53'7 6.7
2015-Apr-26 01:34N 51°25' E 001°60'6 6.2
2015-Apr-26 00:34N 51°22' E 002°09'6 6.4
2015-Apr-25 23:33N 51°21' E 002°19'7 6.7
2015-Apr-25 22:33N 51°23' E 002°29'6 6.2
2015-Apr-25 21:33N 51°23' E 002°39'6 6.0
2015-Apr-25 20:34N 51°25' E 002°48'1515.3
2015-Apr-25 19:33N 51°24' E 003°13'1414.4
2015-Apr-25 18:33N 51°26' E 003°36'1010.1
2015-Apr-25 17:33N 51°21' E 003°50'8 8.3
2015-Apr-25 16:34N 51°24' E 004°02'9 8.9
2015-Apr-25 15:34N 51°21' E 004°16'4 3.4
2015-Apr-25 14:32N 51°17' E 004°16'0 0.0
2015-Apr-25 13:32N 51°17' E 004°16'0 0.0
2015-Apr-25 12:32N 51°17' E 004°16'0 0.0
2015-Apr-25 11:32N 51°17' E 004°16'0 0.0
2015-Apr-25 10:32N 51°17' E 004°16'0 0.0
2015-Apr-25 09:32N 51°17' E 004°16'0 0.0
2015-Apr-25 08:32N 51°17' E 004°16'0 0.0
2015-Apr-25 07:29N 51°17' E 004°16'0 0.0
2015-Apr-25 06:32N 51°17' E 004°16'0 0.0
2015-Apr-25 05:29N 51°17' E 004°16'0 0.0
2015-Apr-25 04:32N 51°17' E 004°16'0 0.0
2015-Apr-25 03:32N 51°17' E 004°16'0 0.0
2015-Apr-25 02:32N 51°17' E 004°16'0 0.0
2015-Apr-25 01:29N 51°17' E 004°16'0 0.0
2015-Apr-25 00:32N 51°17' E 004°16'0 0.0
2015-Apr-24 23:32N 51°17' E 004°16'0 0.0
2015-Apr-24 22:32N 51°17' E 004°16'0 0.0
2015-Apr-24 21:32N 51°17' E 004°16'0 0.0
2015-Apr-24 20:32N 51°17' E 004°16'0 0.0
2015-Apr-24 19:26N 51°17' E 004°16'0 0.0
2015-Apr-24 18:29N 51°17' E 004°16'1 0.8
2015-Apr-24 17:34N 51°18' E 004°16'7 6.6
2015-Apr-24 16:33N 51°24' E 004°12'1110.6
2015-Apr-24 15:34N 51°22' E 003°55'1312.8
2015-Apr-24 14:34N 51°26' E 003°35'1515.2
2015-Apr-24 13:33N 51°24' E 003°11'10 9.7
2015-Apr-24 12:34N 51°34' E 003°09'1212.4
2015-Apr-24 11:33N 51°46' E 003°05'1414.4
2015-Apr-24 10:34N 52°00' E 003°01'1514.5
2015-Apr-24 09:33N 52°14' E 003°04'1615.5
2015-Apr-24 08:33N 52°27' E 003°19'1515.4
2015-Apr-24 07:33N 52°40' E 003°34'1515.4
2015-Apr-24 06:33N 52°52' E 003°50'1514.9
2015-Apr-24 05:33N 53°02' E 004°07'1515.2
2015-Apr-24 04:34N 53°12' E 004°26'1616.1
2015-Apr-24 03:33N 53°27' E 004°36'1616.2
2015-Apr-24 02:34N 53°34' E 005°00'1615.5
2015-Apr-24 01:33N 53°40' E 005°25'1514.6
2015-Apr-24 00:34N 53°44' E 005°49'1414.2
2015-Apr-23 23:34N 53°48' E 006°12'1414.1
2015-Apr-23 22:34N 53°52' E 006°35'1514.5
2015-Apr-23 21:34N 53°56' E 006°58'1615.6
2015-Apr-23 20:33N 53°60' E 007°24'1615.9
2015-Apr-23 19:34N 54°02' E 007°51'1616.1
2015-Apr-23 18:33N 53°60' E 008°18'1818.3
2015-Apr-23 17:34N 53°51' E 008°45'1414.5
2015-Apr-23 16:34N 53°53' E 009°10'1111.5
2015-Apr-23 15:34N 53°45' E 009°24'1110.8
2015-Apr-23 14:34N 53°36' E 009°35'9 9.4
2015-Apr-23 13:33N 53°33' E 009°50'4 3.5
2015-Apr-23 12:29N 53°32' E 009°55'0 0.0
2015-Apr-23 11:32N 53°32' E 009°55'0 0.0
2015-Apr-23 10:29N 53°32' E 009°55'0 0.0
2015-Apr-23 09:29N 53°32' E 009°55'0 0.0
2015-Apr-23 08:32N 53°32' E 009°55'0 0.0
2015-Apr-23 07:32N 53°32' E 009°55'0 0.0
2015-Apr-23 06:29N 53°32' E 009°55'0 0.0
2015-Apr-23 05:29N 53°32' E 009°55'0 0.0
2015-Apr-23 03:28N 53°32' E 009°55'0 0.0
2015-Apr-23 02:25N 53°32' E 009°55'0 0.0
2015-Apr-23 01:31N 53°32' E 009°55'0 0.0
2015-Apr-23 00:32N 53°32' E 009°55'0 0.0
2015-Apr-22 23:32N 53°32' E 009°55'0 0.0
2015-Apr-22 22:32N 53°32' E 009°55'0 0.0
2015-Apr-22 21:32N 53°32' E 009°55'0 0.0
2015-Apr-22 20:32N 53°32' E 009°55'0 0.0
2015-Apr-22 19:32N 53°32' E 009°55'0 0.0
2015-Apr-22 18:32N 53°32' E 009°55'0 0.0
2015-Apr-22 17:32N 53°32' E 009°55'0 0.0
2015-Apr-22 16:29N 53°32' E 009°55'0 0.0
2015-Apr-22 15:29N 53°32' E 009°55'0 0.0
2015-Apr-22 14:32N 53°32' E 009°55'0 0.0
2015-Apr-22 13:32N 53°32' E 009°55'0 0.0
2015-Apr-22 12:29N 53°32' E 009°55'0 0.0
2015-Apr-22 11:29N 53°32' E 009°55'0 0.0
2015-Apr-22 10:29N 53°32' E 009°55'0 0.0
2015-Apr-22 09:33N 53°32' E 009°55'2 2.0
2015-Apr-22 08:33N 53°33' E 009°52'7 6.6
2015-Apr-22 07:33N 53°34' E 009°42'9 8.6
2015-Apr-22 06:33N 53°40' E 009°31'1211.7
2015-Apr-22 05:33N 53°50' E 009°21'1212.1
2015-Apr-22 04:33N 53°51' E 009°01'1313.2
2015-Apr-22 03:33N 53°56' E 008°40'1716.9
2015-Apr-22 02:33N 53°60' E 008°11'1616.2
2015-Apr-22 01:32N 53°56' E 007°44'2121.0
2015-Apr-22 00:33N 53°52' E 007°10'4120.8
2015-Apr-21 22:33N 53°42' E 006°02'2121.1
2015-Apr-21 21:33N 53°35' E 005°28'2121.3
2015-Apr-21 20:34N 53°27' E 004°55'2220.9
2015-Apr-21 19:30N 53°10' E 004°32'2021.5
2015-Apr-21 18:33N 52°52' E 004°15'2222.4
2015-Apr-21 17:33N 52°33' E 003°57'2121.4
2015-Apr-21 16:33N 52°12' E 003°54'1312.9
2015-Apr-21 15:34N 51°60' E 004°02'3 2.9
2015-Apr-21 14:31N 51°57' E 004°03'0 0.0
2015-Apr-21 13:31N 51°57' E 004°04'0 0.0
2015-Apr-21 12:28N 51°57' E 004°04'0 0.0
2015-Apr-21 11:31N 51°57' E 004°04'0 0.0
2015-Apr-21 10:31N 51°57' E 004°04'0 0.0
2015-Apr-21 09:31N 51°57' E 004°04'0 0.0
2015-Apr-21 08:31N 51°57' E 004°04'0 0.0
2015-Apr-21 07:31N 51°57' E 004°04'0 0.0
2015-Apr-21 06:31N 51°57' E 004°04'0 0.0
2015-Apr-21 05:31N 51°57' E 004°04'0 0.0
2015-Apr-21 04:31N 51°57' E 004°04'0 0.0
2015-Apr-21 03:28N 51°57' E 004°04'0 0.0
2015-Apr-21 02:31N 51°57' E 004°04'0 0.0
2015-Apr-21 01:31N 51°57' E 004°04'0 0.0
2015-Apr-21 00:28N 51°57' E 004°04'0 0.0
2015-Apr-20 23:31N 51°57' E 004°04'0 0.0
2015-Apr-20 22:28N 51°57' E 004°04'0 0.0
2015-Apr-20 21:31N 51°57' E 004°03'0 0.0
2015-Apr-20 20:31N 51°57' E 004°04'0 0.0
2015-Apr-20 19:31N 51°57' E 004°04'0 0.0
2015-Apr-20 18:28N 51°57' E 004°04'0 0.0
2015-Apr-20 17:31N 51°57' E 004°03'0 0.0
2015-Apr-20 16:31N 51°57' E 004°04'0 0.0
2015-Apr-20 15:31N 51°57' E 004°03'0 0.0
2015-Apr-20 14:31N 51°57' E 004°03'0 0.0
2015-Apr-20 13:31N 51°57' E 004°04'1 0.9
2015-Apr-20 12:34N 51°57' E 004°05'8 8.1
2015-Apr-20 11:34N 51°60' E 003°53'9 8.5
2015-Apr-20 10:34N 51°58' E 003°39'1313.0
2015-Apr-20 09:33N 51°55' E 003°19'1515.1
2015-Apr-20 08:33N 51°50' E 002°55'1514.9
2015-Apr-20 07:34N 51°43' E 002°34'1515.1
2015-Apr-20 06:34N 51°33' E 002°17'1515.0
2015-Apr-20 05:34N 51°22' E 002°00'1514.8
2015-Apr-20 04:33N 51°10' E 001°45'1616.2
2015-Apr-20 03:33N 50°57' E 001°31'1918.5
2015-Apr-20 02:31N 50°39' E 001°19'1717.9
2015-Apr-20 01:33N 50°31' E 000°55'1817.7
2015-Apr-20 00:32N 50°26' E 000°28'5217.6
2015-Apr-19 21:34N 50°30' W 000°54'1313.3
2015-Apr-19 20:33N 50°43' W 000°58'1413.6
2015-Apr-19 19:34N 50°48' W 001°17'8 7.9
2015-Apr-19 18:33N 50°54' W 001°26'1 1.3
2015-Apr-19 17:32N 50°55' W 001°28'0 0.0
2015-Apr-19 16:32N 50°55' W 001°28'0 0.0
2015-Apr-19 15:32N 50°55' W 001°28'0 0.0
2015-Apr-19 14:32N 50°55' W 001°28'0 0.0
2015-Apr-19 13:32N 50°55' W 001°28'0 0.0
2015-Apr-19 12:32N 50°55' W 001°28'0 0.0
2015-Apr-19 11:32N 50°55' W 001°28'0 0.0
2015-Apr-19 10:32N 50°55' W 001°28'0 0.0
2015-Apr-19 09:32N 50°55' W 001°28'0 0.0
2015-Apr-19 08:32N 50°55' W 001°28'0 0.0
2015-Apr-19 07:32N 50°55' W 001°28'0 0.0
2015-Apr-19 06:32N 50°55' W 001°28'0 0.0
2015-Apr-19 05:32N 50°55' W 001°28'0 0.0
2015-Apr-19 04:32N 50°55' W 001°28'0 0.0
2015-Apr-19 03:32N 50°55' W 001°28'0 0.0
2015-Apr-19 02:33N 50°55' W 001°28'0 0.0
2015-Apr-19 01:32N 50°55' W 001°28'0 0.0
2015-Apr-19 00:33N 50°55' W 001°28'0 0.0
2015-Apr-18 23:32N 50°55' W 001°28'0 0.0
2015-Apr-18 22:33N 50°55' W 001°28'3 2.7
2015-Apr-18 21:33N 50°53' W 001°24'8 8.2
2015-Apr-18 20:34N 50°47' W 001°17'1414.3
2015-Apr-18 19:33N 50°40' W 000°56'1211.6
2015-Apr-18 18:33N 50°29' W 001°02'2120.8
2015-Apr-18 17:33N 50°11' W 001°17'2221.6
2015-Apr-18 16:33N 50°02' W 001°48'2619.9
2015-Apr-18 15:14N 49°55' W 002°28'2119.0
2015-Apr-18 14:09N 49°49' W 002°58'  
Track history (hours):
 
Tides and Currents Weather Stations Pressure Air Temp Water Temp Dewpoint Dewpoint Depression Visibility Wind Speed Wind Dir Waves Ship Positions

CMA CGM Tosca

Last reported at 2015-Apr-28 13:33 UTC. Time now 2015-Apr-28 19:46 UTC.
Position N 49°43' W 000°47'.

Length 334 m; draft 14.5 m.

Type: Ship. MMSI: 228335900.

Date/timePositionNaut miles runAvg speedWind from/ knotsBaromVisibWave heightAir tempDewpointWater temp
2015-Apr-28 13:33N 49°43' W 000°47'1514.9
2015-Apr-28 12:33N 49°36' W 000°26'1414.0
2015-Apr-28 11:34N 49°32' W 000°05'10 9.9
2015-Apr-28 10:34N 49°28' E 000°09'1 1.0
2015-Apr-28 09:33N 49°29' E 000°10'0 0.0
2015-Apr-28 08:33N 49°29' E 000°10'0 0.0
2015-Apr-28 07:33N 49°29' E 000°10'0 0.0
2015-Apr-28 06:33N 49°29' E 000°10'0 0.0
2015-Apr-28 05:33N 49°29' E 000°10'0 0.0
2015-Apr-28 04:30N 49°29' E 000°10'0 0.0
2015-Apr-28 03:27N 49°29' E 000°10'0 0.0
2015-Apr-28 02:33N 49°29' E 000°10'0 0.0
2015-Apr-28 01:33N 49°29' E 000°10'0 0.0
2015-Apr-28 00:33N 49°29' E 000°10'0 0.0
2015-Apr-27 23:34N 49°29' E 000°10'0 0.0
2015-Apr-27 22:33N 49°29' E 000°10'0 0.0
2015-Apr-27 21:30N 49°29' E 000°10'0 0.0
2015-Apr-27 20:33N 49°29' E 000°10'0 0.0
2015-Apr-27 19:33N 49°29' E 000°10'0 0.0
2015-Apr-27 18:33N 49°29' E 000°10'0 0.0
2015-Apr-27 17:33N 49°29' E 000°10'0 0.0
2015-Apr-27 16:33N 49°29' E 000°10'0 0.0
2015-Apr-27 15:33N 49°29' E 000°10'0 0.0
2015-Apr-27 14:33N 49°29' E 000°10'0 0.0
2015-Apr-27 13:33N 49°29' E 000°10'0 0.0
2015-Apr-27 12:33N 49°29' E 000°10'0 0.3
2015-Apr-27 11:34N 49°28' E 000°10'4 3.7
2015-Apr-27 10:33N 49°29' E 000°04'1010.4
2015-Apr-27 09:34N 49°33' W 000°11'1010.1
2015-Apr-27 08:33N 49°43' W 000°11'7 6.8
2015-Apr-27 07:34N 49°50' W 000°11'37 9.2
2015-Apr-27 03:29N 50°27' W 000°04'17 9.0
2015-Apr-27 01:34N 50°31' E 000°22'10 9.8
2015-Apr-27 00:33N 50°34' E 000°37'1010.6
2015-Apr-26 23:34N 50°41' E 000°50'1111.0
2015-Apr-26 22:34N 50°47' E 001°04'1110.7
2015-Apr-26 21:33N 50°54' E 001°17'1010.2
2015-Apr-26 20:33N 51°02' E 001°28'9 8.8
2015-Apr-26 19:34N 51°06' E 001°41'1010.1
2015-Apr-26 18:33N 51°03' E 001°56'10 9.6
2015-Apr-26 17:33N 51°00' E 002°11'0 0.0
2015-Apr-26 16:30N 51°00' E 002°11'0 0.0
2015-Apr-26 15:33N 51°00' E 002°11'0 0.0
2015-Apr-26 14:34N 51°00' E 002°11'0 0.0
2015-Apr-26 13:27N 51°00' E 002°11'0 0.0
2015-Apr-26 12:33N 51°00' E 002°11'0 0.0
2015-Apr-26 11:30N 51°00' E 002°11'0 0.0
2015-Apr-26 10:27N 51°00' E 002°11'0 0.0
2015-Apr-26 09:34N 51°00' E 002°11'2 1.9
2015-Apr-26 08:34N 51°02' E 002°10'1212.0
2015-Apr-26 07:33N 51°02' E 001°51'4 4.3
2015-Apr-26 06:33N 51°03' E 001°44'5 5.4
2015-Apr-26 05:33N 51°08' E 001°40'3 3.5
2015-Apr-26 04:34N 51°11' E 001°43'5 5.0
2015-Apr-26 03:33N 51°14' E 001°48'6 6.0
2015-Apr-26 02:33N 51°19' E 001°53'7 6.7
2015-Apr-26 01:34N 51°25' E 001°60'6 6.2
2015-Apr-26 00:34N 51°22' E 002°09'6 6.4
2015-Apr-25 23:33N 51°21' E 002°19'7 6.7
2015-Apr-25 22:33N 51°23' E 002°29'6 6.2
2015-Apr-25 21:33N 51°23' E 002°39'6 6.0
2015-Apr-25 20:34N 51°25' E 002°48'1515.3
2015-Apr-25 19:33N 51°24' E 003°13'1414.4
2015-Apr-25 18:33N 51°26' E 003°36'1010.1
2015-Apr-25 17:33N 51°21' E 003°50'8 8.3
2015-Apr-25 16:34N 51°24' E 004°02'9 8.9
2015-Apr-25 15:34N 51°21' E 004°16'4 3.4
2015-Apr-25 14:32N 51°17' E 004°16'0 0.0
2015-Apr-25 13:32N 51°17' E 004°16'0 0.0
2015-Apr-25 12:32N 51°17' E 004°16'0 0.0
2015-Apr-25 11:32N 51°17' E 004°16'0 0.0
2015-Apr-25 10:32N 51°17' E 004°16'0 0.0
2015-Apr-25 09:32N 51°17' E 004°16'0 0.0
2015-Apr-25 08:32N 51°17' E 004°16'0 0.0
2015-Apr-25 07:29N 51°17' E 004°16'0 0.0
2015-Apr-25 06:32N 51°17' E 004°16'0 0.0
2015-Apr-25 05:29N 51°17' E 004°16'0 0.0
2015-Apr-25 04:32N 51°17' E 004°16'0 0.0
2015-Apr-25 03:32N 51°17' E 004°16'0 0.0
2015-Apr-25 02:32N 51°17' E 004°16'0 0.0
2015-Apr-25 01:29N 51°17' E 004°16'0 0.0
2015-Apr-25 00:32N 51°17' E 004°16'0 0.0
2015-Apr-24 23:32N 51°17' E 004°16'0 0.0
2015-Apr-24 22:32N 51°17' E 004°16'0 0.0
2015-Apr-24 21:32N 51°17' E 004°16'0 0.0
2015-Apr-24 20:32N 51°17' E 004°16'0 0.0
2015-Apr-24 19:26N 51°17' E 004°16'0 0.0
2015-Apr-24 18:29N 51°17' E 004°16'1 0.8
2015-Apr-24 17:34N 51°18' E 004°16'7 6.6
2015-Apr-24 16:33N 51°24' E 004°12'1110.6
2015-Apr-24 15:34N 51°22' E 003°55'1312.8
2015-Apr-24 14:34N 51°26' E 003°35'1515.2
2015-Apr-24 13:33N 51°24' E 003°11'10 9.7
2015-Apr-24 12:34N 51°34' E 003°09'1212.4
2015-Apr-24 11:33N 51°46' E 003°05'1414.4
2015-Apr-24 10:34N 52°00' E 003°01'1514.5
2015-Apr-24 09:33N 52°14' E 003°04'1615.5
2015-Apr-24 08:33N 52°27' E 003°19'1515.4
2015-Apr-24 07:33N 52°40' E 003°34'1515.4
2015-Apr-24 06:33N 52°52' E 003°50'1514.9
2015-Apr-24 05:33N 53°02' E 004°07'1515.2
2015-Apr-24 04:34N 53°12' E 004°26'1616.1
2015-Apr-24 03:33N 53°27' E 004°36'1616.2
2015-Apr-24 02:34N 53°34' E 005°00'1615.5
2015-Apr-24 01:33N 53°40' E 005°25'1514.6
2015-Apr-24 00:34N 53°44' E 005°49'1414.2
2015-Apr-23 23:34N 53°48' E 006°12'1414.1
2015-Apr-23 22:34N 53°52' E 006°35'1514.5
2015-Apr-23 21:34N 53°56' E 006°58'1615.6
2015-Apr-23 20:33N 53°60' E 007°24'1615.9
2015-Apr-23 19:34N 54°02' E 007°51'1616.1
2015-Apr-23 18:33N 53°60' E 008°18'1818.3
2015-Apr-23 17:34N 53°51' E 008°45'1414.5
2015-Apr-23 16:34N 53°53' E 009°10'1111.5
2015-Apr-23 15:34N 53°45' E 009°24'1110.8
2015-Apr-23 14:34N 53°36' E 009°35'9 9.4
2015-Apr-23 13:33N 53°33' E 009°50'4 3.5
2015-Apr-23 12:29N 53°32' E 009°55'0 0.0
2015-Apr-23 11:32N 53°32' E 009°55'0 0.0
2015-Apr-23 10:29N 53°32' E 009°55'0 0.0
2015-Apr-23 09:29N 53°32' E 009°55'0 0.0
2015-Apr-23 08:32N 53°32' E 009°55'0 0.0
2015-Apr-23 07:32N 53°32' E 009°55'0 0.0
2015-Apr-23 06:29N 53°32' E 009°55'0 0.0
2015-Apr-23 05:29N 53°32' E 009°55'0 0.0
2015-Apr-23 03:28N 53°32' E 009°55'0 0.0
2015-Apr-23 02:25N 53°32' E 009°55'0 0.0
2015-Apr-23 01:31N 53°32' E 009°55'0 0.0
2015-Apr-23 00:32N 53°32' E 009°55'0 0.0
2015-Apr-22 23:32N 53°32' E 009°55'0 0.0
2015-Apr-22 22:32N 53°32' E 009°55'0 0.0
2015-Apr-22 21:32N 53°32' E 009°55'0 0.0
2015-Apr-22 20:32N 53°32' E 009°55'0 0.0
2015-Apr-22 19:32N 53°32' E 009°55'0 0.0
2015-Apr-22 18:32N 53°32' E 009°55'0 0.0
2015-Apr-22 17:32N 53°32' E 009°55'0 0.0
2015-Apr-22 16:29N 53°32' E 009°55'0 0.0
2015-Apr-22 15:29N 53°32' E 009°55'0 0.0
2015-Apr-22 14:32N 53°32' E 009°55'0 0.0
2015-Apr-22 13:32N 53°32' E 009°55'0 0.0
2015-Apr-22 12:29N 53°32' E 009°55'0 0.0
2015-Apr-22 11:29N 53°32' E 009°55'0 0.0
2015-Apr-22 10:29N 53°32' E 009°55'0 0.0
2015-Apr-22 09:33N 53°32' E 009°55'2 2.0
2015-Apr-22 08:33N 53°33' E 009°52'7 6.6
2015-Apr-22 07:33N 53°34' E 009°42'9 8.6
2015-Apr-22 06:33N 53°40' E 009°31'1211.7
2015-Apr-22 05:33N 53°50' E 009°21'1212.1
2015-Apr-22 04:33N 53°51' E 009°01'1313.2
2015-Apr-22 03:33N 53°56' E 008°40'1716.9
2015-Apr-22 02:33N 53°60' E 008°11'1616.2
2015-Apr-22 01:32N 53°56' E 007°44'2121.0
2015-Apr-22 00:33N 53°52' E 007°10'4120.8
2015-Apr-21 22:33N 53°42' E 006°02'2121.1
2015-Apr-21 21:33N 53°35' E 005°28'2121.3
2015-Apr-21 20:34N 53°27' E 004°55'2220.9
2015-Apr-21 19:30N 53°10' E 004°32'2021.5
2015-Apr-21 18:33N 52°52' E 004°15'2222.4
2015-Apr-21 17:33N 52°33' E 003°57'2121.4
2015-Apr-21 16:33N 52°12' E 003°54'1312.9
2015-Apr-21 15:34N 51°60' E 004°02'3 2.9
2015-Apr-21 14:31N 51°57' E 004°03'0 0.0
2015-Apr-21 13:31N 51°57' E 004°04'0 0.0
2015-Apr-21 12:28N 51°57' E 004°04'0 0.0
2015-Apr-21 11:31N 51°57' E 004°04'0 0.0
2015-Apr-21 10:31N 51°57' E 004°04'0 0.0
2015-Apr-21 09:31N 51°57' E 004°04'0 0.0
2015-Apr-21 08:31N 51°57' E 004°04'0 0.0
2015-Apr-21 07:31N 51°57' E 004°04'0 0.0
2015-Apr-21 06:31N 51°57' E 004°04'0 0.0
2015-Apr-21 05:31N 51°57' E 004°04'0 0.0
2015-Apr-21 04:31N 51°57' E 004°04'0 0.0
2015-Apr-21 03:28N 51°57' E 004°04'0 0.0
2015-Apr-21 02:31N 51°57' E 004°04'0 0.0
2015-Apr-21 01:31N 51°57' E 004°04'0 0.0
2015-Apr-21 00:28N 51°57' E 004°04'0 0.0
2015-Apr-20 23:31N 51°57' E 004°04'0 0.0
2015-Apr-20 22:28N 51°57' E 004°04'0 0.0
2015-Apr-20 21:31N 51°57' E 004°03'0 0.0
2015-Apr-20 20:31N 51°57' E 004°04'0 0.0
2015-Apr-20 19:31N 51°57' E 004°04'0 0.0
2015-Apr-20 18:28N 51°57' E 004°04'0 0.0
2015-Apr-20 17:31N 51°57' E 004°03'0 0.0
2015-Apr-20 16:31N 51°57' E 004°04'0 0.0
2015-Apr-20 15:31N 51°57' E 004°03'0 0.0
2015-Apr-20 14:31N 51°57' E 004°03'0 0.0
2015-Apr-20 13:31N 51°57' E 004°04'1 0.9
2015-Apr-20 12:34N 51°57' E 004°05'8 8.1
2015-Apr-20 11:34N 51°60' E 003°53'9 8.5
2015-Apr-20 10:34N 51°58' E 003°39'1313.0
2015-Apr-20 09:33N 51°55' E 003°19'1515.1
2015-Apr-20 08:33N 51°50' E 002°55'1514.9
2015-Apr-20 07:34N 51°43' E 002°34'1515.1
2015-Apr-20 06:34N 51°33' E 002°17'1515.0
2015-Apr-20 05:34N 51°22' E 002°00'1514.8
2015-Apr-20 04:33N 51°10' E 001°45'1616.2
2015-Apr-20 03:33N 50°57' E 001°31'1918.5
2015-Apr-20 02:31N 50°39' E 001°19'1717.9
2015-Apr-20 01:33N 50°31' E 000°55'1817.7
2015-Apr-20 00:32N 50°26' E 000°28'5217.6
2015-Apr-19 21:34N 50°30' W 000°54'1313.3
2015-Apr-19 20:33N 50°43' W 000°58'1413.6
2015-Apr-19 19:34N 50°48' W 001°17'8 7.9
2015-Apr-19 18:33N 50°54' W 001°26'1 1.3
2015-Apr-19 17:32N 50°55' W 001°28'0 0.0
2015-Apr-19 16:32N 50°55' W 001°28'0 0.0
2015-Apr-19 15:32N 50°55' W 001°28'0 0.0
2015-Apr-19 14:32N 50°55' W 001°28'0 0.0
2015-Apr-19 13:32N 50°55' W 001°28'0 0.0
2015-Apr-19 12:32N 50°55' W 001°28'0 0.0
2015-Apr-19 11:32N 50°55' W 001°28'0 0.0
2015-Apr-19 10:32N 50°55' W 001°28'0 0.0
2015-Apr-19 09:32N 50°55' W 001°28'0 0.0
2015-Apr-19 08:32N 50°55' W 001°28'0 0.0
2015-Apr-19 07:32N 50°55' W 001°28'0 0.0
2015-Apr-19 06:32N 50°55' W 001°28'0 0.0
2015-Apr-19 05:32N 50°55' W 001°28'0 0.0
2015-Apr-19 04:32N 50°55' W 001°28'0 0.0
2015-Apr-19 03:32N 50°55' W 001°28'0 0.0
2015-Apr-19 02:33N 50°55' W 001°28'0 0.0
2015-Apr-19 01:32N 50°55' W 001°28'0 0.0
2015-Apr-19 00:33N 50°55' W 001°28'0 0.0
2015-Apr-18 23:32N 50°55' W 001°28'0 0.0
2015-Apr-18 22:33N 50°55' W 001°28'3 2.7
2015-Apr-18 21:33N 50°53' W 001°24'8 8.2
2015-Apr-18 20:34N 50°47' W 001°17'1414.3
2015-Apr-18 19:33N 50°40' W 000°56'1211.6
2015-Apr-18 18:33N 50°29' W 001°02'2120.8
2015-Apr-18 17:33N 50°11' W 001°17'2221.6
2015-Apr-18 16:33N 50°02' W 001°48'2619.9
2015-Apr-18 15:14N 49°55' W 002°28'2119.0
2015-Apr-18 14:09N 49°49' W 002°58'  

Dump ship's entire track history